sensor_id;sensor_type;location;lat;lon;timestamp;temperature;humidity
6988;DHT22;3534;49.960;8.018;2022-10-23T00:01:13;14.40;99.90
6988;DHT22;3534;49.960;8.018;2022-10-23T00:03:42;14.40;99.90
6988;DHT22;3534;49.960;8.018;2022-10-23T00:06:10;14.30;99.90
6988;DHT22;3534;49.960;8.018;2022-10-23T00:08:37;14.30;99.90
6988;DHT22;3534;49.960;8.018;2022-10-23T00:11:06;14.20;99.90
6988;DHT22;3534;49.960;8.018;2022-10-23T00:13:33;14.20;99.90
6988;DHT22;3534;49.960;8.018;2022-10-23T00:16:00;14.20;99.90
6988;DHT22;3534;49.960;8.018;2022-10-23T00:18:27;14.20;99.90
6988;DHT22;3534;49.960;8.018;2022-10-23T00:20:55;14.20;99.90
6988;DHT22;3534;49.960;8.018;2022-10-23T00:23:22;14.20;99.90
6988;DHT22;3534;49.960;8.018;2022-10-23T00:25:49;14.20;99.90
6988;DHT22;3534;49.960;8.018;2022-10-23T00:28:16;14.20;99.90
6988;DHT22;3534;49.960;8.018;2022-10-23T00:30:42;14.10;99.90
6988;DHT22;3534;49.960;8.018;2022-10-23T00:33:09;14.10;99.90
6988;DHT22;3534;49.960;8.018;2022-10-23T00:35:38;14.10;99.90
6988;DHT22;3534;49.960;8.018;2022-10-23T00:38:06;14.10;99.90
6988;DHT22;3534;49.960;8.018;2022-10-23T00:40:34;14.10;99.90
6988;DHT22;3534;49.960;8.018;2022-10-23T00:43:01;14.10;99.90
6988;DHT22;3534;49.960;8.018;2022-10-23T00:45:29;14.00;99.90
6988;DHT22;3534;49.960;8.018;2022-10-23T00:47:58;14.00;99.90
6988;DHT22;3534;49.960;8.018;2022-10-23T00:50:26;14.00;99.90
6988;DHT22;3534;49.960;8.018;2022-10-23T00:52:55;14.00;99.90
6988;DHT22;3534;49.960;8.018;2022-10-23T00:55:24;13.90;99.90
6988;DHT22;3534;49.960;8.018;2022-10-23T00:57:52;13.90;99.90
6988;DHT22;3534;49.960;8.018;2022-10-23T01:00:22;13.90;99.90
6988;DHT22;3534;49.960;8.018;2022-10-23T01:02:49;13.90;99.90
6988;DHT22;3534;49.960;8.018;2022-10-23T01:05:16;13.90;99.90
6988;DHT22;3534;49.960;8.018;2022-10-23T01:07:49;13.90;99.90
6988;DHT22;3534;49.960;8.018;2022-10-23T01:10:25;13.90;99.90
6988;DHT22;3534;49.960;8.018;2022-10-23T01:13:01;13.90;99.90
6988;DHT22;3534;49.960;8.018;2022-10-23T01:15:36;13.80;99.90
6988;DHT22;3534;49.960;8.018;2022-10-23T01:18:12;13.80;99.90
6988;DHT22;3534;49.960;8.018;2022-10-23T01:20:43;13.80;99.90
6988;DHT22;3534;49.960;8.018;2022-10-23T01:23:31;13.80;99.90
6988;DHT22;3534;49.960;8.018;2022-10-23T01:26:12;13.80;99.90
6988;DHT22;3534;49.960;8.018;2022-10-23T01:28:47;13.80;99.90
6988;DHT22;3534;49.960;8.018;2022-10-23T01:31:18;13.80;99.90
6988;DHT22;3534;49.960;8.018;2022-10-23T01:33:51;13.80;99.90
6988;DHT22;3534;49.960;8.018;2022-10-23T01:36:23;13.80;99.90
6988;DHT22;3534;49.960;8.018;2022-10-23T01:38:55;13.80;99.90
6988;DHT22;3534;49.960;8.018;2022-10-23T01:41:27;13.80;99.90
6988;DHT22;3534;49.960;8.018;2022-10-23T01:43:59;13.80;99.90
6988;DHT22;3534;49.960;8.018;2022-10-23T01:46:27;13.80;99.90
6988;DHT22;3534;49.960;8.018;2022-10-23T01:48:55;13.70;99.90
6988;DHT22;3534;49.960;8.018;2022-10-23T01:51:25;13.70;99.90
6988;DHT22;3534;49.960;8.018;2022-10-23T01:53:56;13.70;99.90
6988;DHT22;3534;49.960;8.018;2022-10-23T01:56:26;13.70;99.90
6988;DHT22;3534;49.960;8.018;2022-10-23T01:58:57;13.70;99.90
6988;DHT22;3534;49.960;8.018;2022-10-23T02:01:27;13.70;99.90
6988;DHT22;3534;49.960;8.018;2022-10-23T02:03:55;13.70;99.90
6988;DHT22;3534;49.960;8.018;2022-10-23T02:06:23;13.70;99.90
6988;DHT22;3534;49.960;8.018;2022-10-23T02:08:49;13.70;99.90
6988;DHT22;3534;49.960;8.018;2022-10-23T02:11:18;13.70;99.90
6988;DHT22;3534;49.960;8.018;2022-10-23T02:13:49;13.70;99.90
6988;DHT22;3534;49.960;8.018;2022-10-23T02:16:26;13.70;99.90
6988;DHT22;3534;49.960;8.018;2022-10-23T02:19:05;13.70;99.90
6988;DHT22;3534;49.960;8.018;2022-10-23T02:21:39;13.70;99.90
6988;DHT22;3534;49.960;8.018;2022-10-23T02:24:11;13.70;99.90
6988;DHT22;3534;49.960;8.018;2022-10-23T02:26:41;13.70;99.90
6988;DHT22;3534;49.960;8.018;2022-10-23T02:29:11;13.70;99.90
6988;DHT22;3534;49.960;8.018;2022-10-23T02:31:41;13.70;99.90
6988;DHT22;3534;49.960;8.018;2022-10-23T02:34:08;13.70;99.90
6988;DHT22;3534;49.960;8.018;2022-10-23T02:36:34;13.70;99.90
6988;DHT22;3534;49.960;8.018;2022-10-23T02:39:01;13.70;99.90
6988;DHT22;3534;49.960;8.018;2022-10-23T02:41:34;13.70;99.90
6988;DHT22;3534;49.960;8.018;2022-10-23T02:44:18;13.60;99.90
6988;DHT22;3534;49.960;8.018;2022-10-23T02:46:54;13.60;99.90
6988;DHT22;3534;49.960;8.018;2022-10-23T02:49:25;13.60;99.90
6988;DHT22;3534;49.960;8.018;2022-10-23T02:52:03;13.60;99.90
6988;DHT22;3534;49.960;8.018;2022-10-23T02:54:44;13.60;99.90
6988;DHT22;3534;49.960;8.018;2022-10-23T02:57:18;13.60;99.90
6988;DHT22;3534;49.960;8.018;2022-10-23T02:59:52;13.60;99.90
6988;DHT22;3534;49.960;8.018;2022-10-23T03:02:30;13.60;99.90
6988;DHT22;3534;49.960;8.018;2022-10-23T03:04:59;13.60;99.90
6988;DHT22;3534;49.960;8.018;2022-10-23T03:07:26;13.50;99.90
6988;DHT22;3534;49.960;8.018;2022-10-23T03:09:53;13.50;99.90
6988;DHT22;3534;49.960;8.018;2022-10-23T03:12:20;13.50;99.90
6988;DHT22;3534;49.960;8.018;2022-10-23T03:14:46;13.40;99.90
6988;DHT22;3534;49.960;8.018;2022-10-23T03:17:13;13.40;99.90
6988;DHT22;3534;49.960;8.018;2022-10-23T03:19:41;13.50;99.90
6988;DHT22;3534;49.960;8.018;2022-10-23T03:22:08;13.40;99.90
6988;DHT22;3534;49.960;8.018;2022-10-23T03:24:35;13.40;99.90
6988;DHT22;3534;49.960;8.018;2022-10-23T03:27:01;13.40;99.90
6988;DHT22;3534;49.960;8.018;2022-10-23T03:29:28;13.40;99.90
6988;DHT22;3534;49.960;8.018;2022-10-23T03:31:55;13.40;99.90
6988;DHT22;3534;49.960;8.018;2022-10-23T03:34:22;13.40;99.90
6988;DHT22;3534;49.960;8.018;2022-10-23T03:36:50;13.50;99.90
6988;DHT22;3534;49.960;8.018;2022-10-23T03:39:16;13.50;99.90
6988;DHT22;3534;49.960;8.018;2022-10-23T03:41:43;13.50;99.90
6988;DHT22;3534;49.960;8.018;2022-10-23T03:44:10;13.50;99.90
6988;DHT22;3534;49.960;8.018;2022-10-23T03:46:37;13.50;99.90
6988;DHT22;3534;49.960;8.018;2022-10-23T03:49:03;13.50;99.90
6988;DHT22;3534;49.960;8.018;2022-10-23T03:51:30;13.50;99.90
6988;DHT22;3534;49.960;8.018;2022-10-23T03:53:58;13.50;99.90
6988;DHT22;3534;49.960;8.018;2022-10-23T03:56:25;13.50;99.90
6988;DHT22;3534;49.960;8.018;2022-10-23T03:58:52;13.50;99.90
6988;DHT22;3534;49.960;8.018;2022-10-23T04:01:18;13.50;99.90
6988;DHT22;3534;49.960;8.018;2022-10-23T04:03:45;13.50;99.90
6988;DHT22;3534;49.960;8.018;2022-10-23T04:06:12;13.40;99.90
6988;DHT22;3534;49.960;8.018;2022-10-23T04:08:39;13.40;99.90
6988;DHT22;3534;49.960;8.018;2022-10-23T04:11:07;13.40;99.90
6988;DHT22;3534;49.960;8.018;2022-10-23T04:13:33;13.40;99.90
6988;DHT22;3534;49.960;8.018;2022-10-23T04:16:01;13.40;99.90
6988;DHT22;3534;49.960;8.018;2022-10-23T04:18:27;13.40;99.90
6988;DHT22;3534;49.960;8.018;2022-10-23T04:20:54;13.30;99.90
6988;DHT22;3534;49.960;8.018;2022-10-23T04:23:21;13.30;99.90
6988;DHT22;3534;49.960;8.018;2022-10-23T04:25:48;13.30;99.90
6988;DHT22;3534;49.960;8.018;2022-10-23T04:28:16;13.30;99.90
6988;DHT22;3534;49.960;8.018;2022-10-23T04:30:42;13.30;99.90
6988;DHT22;3534;49.960;8.018;2022-10-23T04:33:09;13.30;99.90
6988;DHT22;3534;49.960;8.018;2022-10-23T04:35:36;13.30;99.90
6988;DHT22;3534;49.960;8.018;2022-10-23T04:38:02;13.10;99.90
6988;DHT22;3534;49.960;8.018;2022-10-23T04:40:29;13.00;99.90
6988;DHT22;3534;49.960;8.018;2022-10-23T04:42:56;13.00;99.90
6988;DHT22;3534;49.960;8.018;2022-10-23T04:45:24;13.00;99.90
6988;DHT22;3534;49.960;8.018;2022-10-23T04:47:51;13.00;99.90
6988;DHT22;3534;49.960;8.018;2022-10-23T04:50:19;13.00;99.90
6988;DHT22;3534;49.960;8.018;2022-10-23T04:52:45;13.00;99.90
6988;DHT22;3534;49.960;8.018;2022-10-23T04:55:13;13.10;99.90
6988;DHT22;3534;49.960;8.018;2022-10-23T04:57:39;13.10;99.90
6988;DHT22;3534;49.960;8.018;2022-10-23T05:00:09;13.10;99.90
6988;DHT22;3534;49.960;8.018;2022-10-23T05:02:38;13.10;99.90
6988;DHT22;3534;49.960;8.018;2022-10-23T05:05:06;13.10;99.90
6988;DHT22;3534;49.960;8.018;2022-10-23T05:07:33;13.20;99.90
6988;DHT22;3534;49.960;8.018;2022-10-23T05:10:00;13.20;99.90
6988;DHT22;3534;49.960;8.018;2022-10-23T05:12:28;13.00;99.90
6988;DHT22;3534;49.960;8.018;2022-10-23T05:14:55;12.90;99.90
6988;DHT22;3534;49.960;8.018;2022-10-23T05:17:24;12.70;99.90
6988;DHT22;3534;49.960;8.018;2022-10-23T05:19:54;12.70;99.90
6988;DHT22;3534;49.960;8.018;2022-10-23T05:22:25;12.70;99.90
6988;DHT22;3534;49.960;8.018;2022-10-23T05:24:55;12.70;99.90
6988;DHT22;3534;49.960;8.018;2022-10-23T05:27:22;12.70;99.90
6988;DHT22;3534;49.960;8.018;2022-10-23T05:29:48;12.80;99.90
6988;DHT22;3534;49.960;8.018;2022-10-23T05:32:16;12.80;99.90
6988;DHT22;3534;49.960;8.018;2022-10-23T05:34:43;12.90;99.90
6988;DHT22;3534;49.960;8.018;2022-10-23T05:37:12;12.90;99.90
6988;DHT22;3534;49.960;8.018;2022-10-23T05:39:41;12.90;99.90
6988;DHT22;3534;49.960;8.018;2022-10-23T05:42:08;13.00;99.90
6988;DHT22;3534;49.960;8.018;2022-10-23T05:44:35;13.00;99.90
6988;DHT22;3534;49.960;8.018;2022-10-23T05:47:02;13.00;99.90
6988;DHT22;3534;49.960;8.018;2022-10-23T05:49:29;13.00;99.90
6988;DHT22;3534;49.960;8.018;2022-10-23T05:51:55;13.00;99.90
6988;DHT22;3534;49.960;8.018;2022-10-23T05:54:23;13.10;99.90
6988;DHT22;3534;49.960;8.018;2022-10-23T05:56:50;13.10;99.90
6988;DHT22;3534;49.960;8.018;2022-10-23T05:59:17;13.10;99.90
6988;DHT22;3534;49.960;8.018;2022-10-23T06:01:44;13.00;99.90
6988;DHT22;3534;49.960;8.018;2022-10-23T06:04:11;13.00;99.90
6988;DHT22;3534;49.960;8.018;2022-10-23T06:06:38;13.00;99.90
6988;DHT22;3534;49.960;8.018;2022-10-23T06:09:04;13.00;99.90
6988;DHT22;3534;49.960;8.018;2022-10-23T06:11:33;13.10;99.90
6988;DHT22;3534;49.960;8.018;2022-10-23T06:13:59;13.00;99.90
6988;DHT22;3534;49.960;8.018;2022-10-23T06:16:26;12.90;99.90
6988;DHT22;3534;49.960;8.018;2022-10-23T06:18:53;12.90;99.90
6988;DHT22;3534;49.960;8.018;2022-10-23T06:21:19;12.90;99.90
6988;DHT22;3534;49.960;8.018;2022-10-23T06:23:46;12.90;99.90
6988;DHT22;3534;49.960;8.018;2022-10-23T06:26:14;13.00;99.90
6988;DHT22;3534;49.960;8.018;2022-10-23T06:28:43;13.00;99.90
6988;DHT22;3534;49.960;8.018;2022-10-23T06:31:11;13.00;99.90
6988;DHT22;3534;49.960;8.018;2022-10-23T06:33:38;13.00;99.90
6988;DHT22;3534;49.960;8.018;2022-10-23T06:36:06;13.00;99.90
6988;DHT22;3534;49.960;8.018;2022-10-23T06:38:34;13.00;99.90
6988;DHT22;3534;49.960;8.018;2022-10-23T06:41:05;12.90;99.90
6988;DHT22;3534;49.960;8.018;2022-10-23T06:43:33;12.90;99.90
6988;DHT22;3534;49.960;8.018;2022-10-23T06:46:02;13.00;99.90
6988;DHT22;3534;49.960;8.018;2022-10-23T06:48:29;13.00;99.90
6988;DHT22;3534;49.960;8.018;2022-10-23T06:50:56;13.00;99.90
6988;DHT22;3534;49.960;8.018;2022-10-23T06:53:23;13.00;99.90
6988;DHT22;3534;49.960;8.018;2022-10-23T06:55:50;13.00;99.90
6988;DHT22;3534;49.960;8.018;2022-10-23T06:58:17;13.00;99.90
6988;DHT22;3534;49.960;8.018;2022-10-23T07:00:44;13.00;99.90
6988;DHT22;3534;49.960;8.018;2022-10-23T07:03:12;13.00;99.90
6988;DHT22;3534;49.960;8.018;2022-10-23T07:05:38;13.00;99.90
6988;DHT22;3534;49.960;8.018;2022-10-23T07:08:06;13.10;99.90
6988;DHT22;3534;49.960;8.018;2022-10-23T07:10:33;13.10;99.90
6988;DHT22;3534;49.960;8.018;2022-10-23T07:13:00;13.10;99.90
6988;DHT22;3534;49.960;8.018;2022-10-23T07:15:27;13.10;99.90
6988;DHT22;3534;49.960;8.018;2022-10-23T07:17:55;13.10;99.90
6988;DHT22;3534;49.960;8.018;2022-10-23T07:20:23;13.10;99.90
6988;DHT22;3534;49.960;8.018;2022-10-23T07:22:50;13.10;99.90
6988;DHT22;3534;49.960;8.018;2022-10-23T07:25:19;13.20;99.90
6988;DHT22;3534;49.960;8.018;2022-10-23T07:27:46;13.10;99.90
6988;DHT22;3534;49.960;8.018;2022-10-23T07:30:13;13.10;99.90
6988;DHT22;3534;49.960;8.018;2022-10-23T07:32:40;13.10;99.90
6988;DHT22;3534;49.960;8.018;2022-10-23T07:35:07;13.10;99.90
6988;DHT22;3534;49.960;8.018;2022-10-23T07:37:36;13.20;99.90
6988;DHT22;3534;49.960;8.018;2022-10-23T07:40:03;13.00;99.90
6988;DHT22;3534;49.960;8.018;2022-10-23T07:42:30;12.90;99.90
6988;DHT22;3534;49.960;8.018;2022-10-23T07:44:57;12.80;99.90
6988;DHT22;3534;49.960;8.018;2022-10-23T07:47:24;12.80;99.90
6988;DHT22;3534;49.960;8.018;2022-10-23T07:49:50;12.90;99.90
6988;DHT22;3534;49.960;8.018;2022-10-23T07:52:17;12.90;99.90
6988;DHT22;3534;49.960;8.018;2022-10-23T07:54:45;13.00;99.90
6988;DHT22;3534;49.960;8.018;2022-10-23T07:57:11;13.00;99.90
6988;DHT22;3534;49.960;8.018;2022-10-23T07:59:38;13.00;99.90
6988;DHT22;3534;49.960;8.018;2022-10-23T08:02:09;13.00;99.90
6988;DHT22;3534;49.960;8.018;2022-10-23T08:04:36;13.00;99.90
6988;DHT22;3534;49.960;8.018;2022-10-23T08:07:03;13.00;99.90
6988;DHT22;3534;49.960;8.018;2022-10-23T08:09:30;13.00;99.90
6988;DHT22;3534;49.960;8.018;2022-10-23T08:12:00;13.10;99.90
6988;DHT22;3534;49.960;8.018;2022-10-23T08:14:26;13.20;99.90
6988;DHT22;3534;49.960;8.018;2022-10-23T08:16:53;13.20;99.90
6988;DHT22;3534;49.960;8.018;2022-10-23T08:19:20;13.30;99.90
6988;DHT22;3534;49.960;8.018;2022-10-23T08:21:46;13.40;99.90
6988;DHT22;3534;49.960;8.018;2022-10-23T08:24:13;13.40;99.90
6988;DHT22;3534;49.960;8.018;2022-10-23T08:26:40;13.50;99.90
6988;DHT22;3534;49.960;8.018;2022-10-23T08:29:08;13.50;99.90
6988;DHT22;3534;49.960;8.018;2022-10-23T08:31:35;13.50;99.90
6988;DHT22;3534;49.960;8.018;2022-10-23T08:34:01;13.50;99.90
6988;DHT22;3534;49.960;8.018;2022-10-23T08:36:28;13.60;99.90
6988;DHT22;3534;49.960;8.018;2022-10-23T08:38:56;13.60;99.90
6988;DHT22;3534;49.960;8.018;2022-10-23T08:41:27;13.60;99.90
6988;DHT22;3534;49.960;8.018;2022-10-23T08:43:59;13.60;99.90
6988;DHT22;3534;49.960;8.018;2022-10-23T08:46:31;13.50;99.90
6988;DHT22;3534;49.960;8.018;2022-10-23T08:49:12;13.50;99.90
6988;DHT22;3534;49.960;8.018;2022-10-23T08:51:45;13.50;99.90
6988;DHT22;3534;49.960;8.018;2022-10-23T08:54:15;13.50;99.90
6988;DHT22;3534;49.960;8.018;2022-10-23T08:56:48;13.60;99.90
6988;DHT22;3534;49.960;8.018;2022-10-23T08:59:23;13.60;99.90
6988;DHT22;3534;49.960;8.018;2022-10-23T09:01:58;13.70;99.90
6988;DHT22;3534;49.960;8.018;2022-10-23T09:04:26;13.80;99.90
6988;DHT22;3534;49.960;8.018;2022-10-23T09:06:57;13.90;99.90
6988;DHT22;3534;49.960;8.018;2022-10-23T09:09:43;13.90;99.90
6988;DHT22;3534;49.960;8.018;2022-10-23T09:12:13;13.90;99.90
6988;DHT22;3534;49.960;8.018;2022-10-23T09:15:03;13.90;99.90
6988;DHT22;3534;49.960;8.018;2022-10-23T09:17:36;13.90;99.90
6988;DHT22;3534;49.960;8.018;2022-10-23T09:20:13;14.00;99.90
6988;DHT22;3534;49.960;8.018;2022-10-23T09:22:42;13.90;99.90
6988;DHT22;3534;49.960;8.018;2022-10-23T09:25:10;14.00;99.90
6988;DHT22;3534;49.960;8.018;2022-10-23T09:27:37;14.10;99.90
6988;DHT22;3534;49.960;8.018;2022-10-23T09:30:04;14.20;99.90
6988;DHT22;3534;49.960;8.018;2022-10-23T09:32:35;14.30;99.90
6988;DHT22;3534;49.960;8.018;2022-10-23T09:35:03;14.40;99.90
6988;DHT22;3534;49.960;8.018;2022-10-23T09:37:31;14.30;99.90
6988;DHT22;3534;49.960;8.018;2022-10-23T09:40:11;14.40;99.90
6988;DHT22;3534;49.960;8.018;2022-10-23T09:42:49;14.30;99.90
6988;DHT22;3534;49.960;8.018;2022-10-23T09:45:21;14.30;99.90
6988;DHT22;3534;49.960;8.018;2022-10-23T09:47:50;14.40;99.90
6988;DHT22;3534;49.960;8.018;2022-10-23T09:50:18;14.40;99.90
6988;DHT22;3534;49.960;8.018;2022-10-23T09:52:51;14.50;99.90
6988;DHT22;3534;49.960;8.018;2022-10-23T09:55:21;14.60;99.90
6988;DHT22;3534;49.960;8.018;2022-10-23T09:57:50;14.70;99.90
6988;DHT22;3534;49.960;8.018;2022-10-23T10:00:19;14.70;99.90
6988;DHT22;3534;49.960;8.018;2022-10-23T10:02:56;14.80;99.90
6988;DHT22;3534;49.960;8.018;2022-10-23T10:05:25;14.90;99.90
6988;DHT22;3534;49.960;8.018;2022-10-23T10:07:58;15.00;99.90
6988;DHT22;3534;49.960;8.018;2022-10-23T10:10:29;15.00;99.90
6988;DHT22;3534;49.960;8.018;2022-10-23T10:13:02;15.10;99.90
6988;DHT22;3534;49.960;8.018;2022-10-23T10:15:36;15.20;99.90
6988;DHT22;3534;49.960;8.018;2022-10-23T10:18:14;15.20;99.90
6988;DHT22;3534;49.960;8.018;2022-10-23T10:21:04;15.30;99.90
6988;DHT22;3534;49.960;8.018;2022-10-23T10:23:39;15.30;99.90
6988;DHT22;3534;49.960;8.018;2022-10-23T10:26:17;15.40;99.90
6988;DHT22;3534;49.960;8.018;2022-10-23T10:28:59;15.40;99.90
6988;DHT22;3534;49.960;8.018;2022-10-23T10:31:35;15.40;99.90
6988;DHT22;3534;49.960;8.018;2022-10-23T10:34:12;15.40;99.90
6988;DHT22;3534;49.960;8.018;2022-10-23T10:36:46;15.50;99.90
6988;DHT22;3534;49.960;8.018;2022-10-23T10:39:23;15.50;99.90
6988;DHT22;3534;49.960;8.018;2022-10-23T10:42:02;15.50;99.90
6988;DHT22;3534;49.960;8.018;2022-10-23T10:44:42;15.60;99.90
6988;DHT22;3534;49.960;8.018;2022-10-23T10:47:14;15.60;99.90
6988;DHT22;3534;49.960;8.018;2022-10-23T10:49:56;15.70;99.90
6988;DHT22;3534;49.960;8.018;2022-10-23T10:52:35;15.70;99.90
6988;DHT22;3534;49.960;8.018;2022-10-23T10:55:13;15.80;99.90
6988;DHT22;3534;49.960;8.018;2022-10-23T10:57:45;15.80;99.90
6988;DHT22;3534;49.960;8.018;2022-10-23T11:00:14;15.90;99.90
6988;DHT22;3534;49.960;8.018;2022-10-23T11:02:44;16.00;99.90
6988;DHT22;3534;49.960;8.018;2022-10-23T11:05:21;16.10;99.90
6988;DHT22;3534;49.960;8.018;2022-10-23T11:07:54;16.10;99.90
6988;DHT22;3534;49.960;8.018;2022-10-23T11:10:21;16.10;99.90
6988;DHT22;3534;49.960;8.018;2022-10-23T11:12:48;16.20;99.90
6988;DHT22;3534;49.960;8.018;2022-10-23T11:15:19;16.20;99.90
6988;DHT22;3534;49.960;8.018;2022-10-23T11:17:49;16.30;99.90
6988;DHT22;3534;49.960;8.018;2022-10-23T11:20:34;16.40;99.90
6988;DHT22;3534;49.960;8.018;2022-10-23T11:23:09;16.40;99.90
6988;DHT22;3534;49.960;8.018;2022-10-23T11:25:55;16.40;99.90
6988;DHT22;3534;49.960;8.018;2022-10-23T11:28:36;16.50;99.90
6988;DHT22;3534;49.960;8.018;2022-10-23T11:31:11;16.50;99.90
6988;DHT22;3534;49.960;8.018;2022-10-23T11:34:21;16.60;99.90
6988;DHT22;3534;49.960;8.018;2022-10-23T11:36:54;16.60;99.90
6988;DHT22;3534;49.960;8.018;2022-10-23T11:39:24;16.70;99.90
6988;DHT22;3534;49.960;8.018;2022-10-23T11:41:53;16.80;99.90
6988;DHT22;3534;49.960;8.018;2022-10-23T11:44:25;16.90;99.90
6988;DHT22;3534;49.960;8.018;2022-10-23T11:47:00;17.20;99.90
6988;DHT22;3534;49.960;8.018;2022-10-23T11:49:27;17.50;99.90
6988;DHT22;3534;49.960;8.018;2022-10-23T11:52:02;17.70;99.90
6988;DHT22;3534;49.960;8.018;2022-10-23T11:54:30;18.10;99.90
6988;DHT22;3534;49.960;8.018;2022-10-23T11:57:11;18.30;99.90
6988;DHT22;3534;49.960;8.018;2022-10-23T11:59:53;18.60;99.90
6988;DHT22;3534;49.960;8.018;2022-10-23T12:02:27;18.90;99.90
6988;DHT22;3534;49.960;8.018;2022-10-23T12:04:59;19.10;99.90
6988;DHT22;3534;49.960;8.018;2022-10-23T12:07:30;19.40;99.90
6988;DHT22;3534;49.960;8.018;2022-10-23T12:09:59;19.70;99.90
6988;DHT22;3534;49.960;8.018;2022-10-23T12:12:29;20.00;99.90
6988;DHT22;3534;49.960;8.018;2022-10-23T12:15:22;20.20;99.90
6988;DHT22;3534;49.960;8.018;2022-10-23T12:17:51;20.50;99.90
6988;DHT22;3534;49.960;8.018;2022-10-23T12:20:26;20.60;99.90
6988;DHT22;3534;49.960;8.018;2022-10-23T12:23:17;20.90;99.90
6988;DHT22;3534;49.960;8.018;2022-10-23T12:25:59;21.00;99.90
6988;DHT22;3534;49.960;8.018;2022-10-23T12:28:34;21.20;99.90
6988;DHT22;3534;49.960;8.018;2022-10-23T12:31:14;21.50;99.90
6988;DHT22;3534;49.960;8.018;2022-10-23T12:33:48;21.70;99.90
6988;DHT22;3534;49.960;8.018;2022-10-23T12:36:42;21.90;99.90
6988;DHT22;3534;49.960;8.018;2022-10-23T12:39:29;22.20;99.90
6988;DHT22;3534;49.960;8.018;2022-10-23T12:41:57;22.40;99.90
6988;DHT22;3534;49.960;8.018;2022-10-23T12:44:24;22.50;99.90
6988;DHT22;3534;49.960;8.018;2022-10-23T12:46:54;22.50;99.90
6988;DHT22;3534;49.960;8.018;2022-10-23T12:49:23;22.60;99.90
6988;DHT22;3534;49.960;8.018;2022-10-23T12:51:55;22.60;99.90
6988;DHT22;3534;49.960;8.018;2022-10-23T12:54:22;22.60;99.90
6988;DHT22;3534;49.960;8.018;2022-10-23T12:56:50;22.50;99.90
6988;DHT22;3534;49.960;8.018;2022-10-23T12:59:19;22.50;99.90
6988;DHT22;3534;49.960;8.018;2022-10-23T13:01:47;22.40;99.90
6988;DHT22;3534;49.960;8.018;2022-10-23T13:04:24;22.30;99.90
6988;DHT22;3534;49.960;8.018;2022-10-23T13:06:53;22.30;99.90
6988;DHT22;3534;49.960;8.018;2022-10-23T13:09:23;22.30;99.90
6988;DHT22;3534;49.960;8.018;2022-10-23T13:11:51;22.30;99.90
6988;DHT22;3534;49.960;8.018;2022-10-23T13:14:30;22.50;99.90
6988;DHT22;3534;49.960;8.018;2022-10-23T13:16:59;22.50;99.90
6988;DHT22;3534;49.960;8.018;2022-10-23T13:19:26;22.50;99.90
6988;DHT22;3534;49.960;8.018;2022-10-23T13:21:52;22.50;99.90
6988;DHT22;3534;49.960;8.018;2022-10-23T13:24:20;22.30;99.90
6988;DHT22;3534;49.960;8.018;2022-10-23T13:26:47;22.30;99.90
6988;DHT22;3534;49.960;8.018;2022-10-23T13:29:20;22.40;99.90
6988;DHT22;3534;49.960;8.018;2022-10-23T13:31:48;22.50;99.90
6988;DHT22;3534;49.960;8.018;2022-10-23T13:34:22;22.60;99.90
6988;DHT22;3534;49.960;8.018;2022-10-23T13:36:55;22.60;99.90
6988;DHT22;3534;49.960;8.018;2022-10-23T13:39:24;22.60;99.90
6988;DHT22;3534;49.960;8.018;2022-10-23T13:41:51;22.60;99.90
6988;DHT22;3534;49.960;8.018;2022-10-23T13:44:21;22.60;99.90
6988;DHT22;3534;49.960;8.018;2022-10-23T13:46:48;22.70;99.90
6988;DHT22;3534;49.960;8.018;2022-10-23T13:49:16;22.80;99.90
6988;DHT22;3534;49.960;8.018;2022-10-23T13:51:45;22.80;99.90
6988;DHT22;3534;49.960;8.018;2022-10-23T13:54:15;22.80;99.90
6988;DHT22;3534;49.960;8.018;2022-10-23T13:56:42;22.80;99.90
6988;DHT22;3534;49.960;8.018;2022-10-23T13:59:10;22.60;99.90
6988;DHT22;3534;49.960;8.018;2022-10-23T14:01:38;22.50;99.90
6988;DHT22;3534;49.960;8.018;2022-10-23T14:04:06;22.50;99.90
6988;DHT22;3534;49.960;8.018;2022-10-23T14:06:32;22.40;99.90
6988;DHT22;3534;49.960;8.018;2022-10-23T14:09:03;22.30;99.90
6988;DHT22;3534;49.960;8.018;2022-10-23T14:11:30;22.10;99.90
6988;DHT22;3534;49.960;8.018;2022-10-23T14:13:57;22.00;99.90
6988;DHT22;3534;49.960;8.018;2022-10-23T14:16:24;21.80;99.90
6988;DHT22;3534;49.960;8.018;2022-10-23T14:18:52;21.70;99.90
6988;DHT22;3534;49.960;8.018;2022-10-23T14:21:20;21.70;99.90
6988;DHT22;3534;49.960;8.018;2022-10-23T14:23:48;21.60;99.90
6988;DHT22;3534;49.960;8.018;2022-10-23T14:26:21;21.50;99.90
6988;DHT22;3534;49.960;8.018;2022-10-23T14:28:51;21.40;99.90
6988;DHT22;3534;49.960;8.018;2022-10-23T14:31:20;21.30;99.90
6988;DHT22;3534;49.960;8.018;2022-10-23T14:33:52;21.30;99.90
6988;DHT22;3534;49.960;8.018;2022-10-23T14:36:19;21.20;99.90
6988;DHT22;3534;49.960;8.018;2022-10-23T14:38:46;21.20;99.90
6988;DHT22;3534;49.960;8.018;2022-10-23T14:41:14;21.10;99.90
6988;DHT22;3534;49.960;8.018;2022-10-23T14:43:41;21.10;99.90
6988;DHT22;3534;49.960;8.018;2022-10-23T14:46:09;21.00;99.90
6988;DHT22;3534;49.960;8.018;2022-10-23T14:48:36;21.10;99.90
6988;DHT22;3534;49.960;8.018;2022-10-23T14:51:58;21.00;99.90
6988;DHT22;3534;49.960;8.018;2022-10-23T14:54:08;21.00;99.90
6988;DHT22;3534;49.960;8.018;2022-10-23T14:56:36;21.00;99.90
6988;DHT22;3534;49.960;8.018;2022-10-23T14:59:03;20.90;99.90
6988;DHT22;3534;49.960;8.018;2022-10-23T15:01:32;20.90;99.90
6988;DHT22;3534;49.960;8.018;2022-10-23T15:04:00;20.80;99.90
6988;DHT22;3534;49.960;8.018;2022-10-23T15:06:28;20.80;99.90
6988;DHT22;3534;49.960;8.018;2022-10-23T15:08:55;20.80;99.90
6988;DHT22;3534;49.960;8.018;2022-10-23T15:11:22;20.70;99.90
6988;DHT22;3534;49.960;8.018;2022-10-23T15:13:50;20.70;99.90
6988;DHT22;3534;49.960;8.018;2022-10-23T15:16:17;20.70;99.90
6988;DHT22;3534;49.960;8.018;2022-10-23T15:18:44;20.70;99.90
6988;DHT22;3534;49.960;8.018;2022-10-23T15:21:11;20.70;99.90
6988;DHT22;3534;49.960;8.018;2022-10-23T15:23:40;20.70;99.90
6988;DHT22;3534;49.960;8.018;2022-10-23T15:26:10;20.70;99.90
6988;DHT22;3534;49.960;8.018;2022-10-23T15:28:37;20.80;99.90
6988;DHT22;3534;49.960;8.018;2022-10-23T15:31:04;20.90;99.90
6988;DHT22;3534;49.960;8.018;2022-10-23T15:33:31;20.90;99.90
6988;DHT22;3534;49.960;8.018;2022-10-23T15:35:58;20.80;99.90
6988;DHT22;3534;49.960;8.018;2022-10-23T15:38:24;20.70;99.90
6988;DHT22;3534;49.960;8.018;2022-10-23T15:40:55;20.70;99.90
6988;DHT22;3534;49.960;8.018;2022-10-23T15:43:25;20.60;99.90
6988;DHT22;3534;49.960;8.018;2022-10-23T15:45:52;20.50;99.90
6988;DHT22;3534;49.960;8.018;2022-10-23T15:48:19;20.40;99.90
6988;DHT22;3534;49.960;8.018;2022-10-23T15:50:45;20.40;99.90
6988;DHT22;3534;49.960;8.018;2022-10-23T15:53:12;20.30;99.90
6988;DHT22;3534;49.960;8.018;2022-10-23T15:55:39;20.20;99.90
6988;DHT22;3534;49.960;8.018;2022-10-23T15:58:07;20.20;99.90
6988;DHT22;3534;49.960;8.018;2022-10-23T16:00:33;20.10;99.90
6988;DHT22;3534;49.960;8.018;2022-10-23T16:03:02;20.10;99.90
6988;DHT22;3534;49.960;8.018;2022-10-23T16:05:29;20.00;99.90
6988;DHT22;3534;49.960;8.018;2022-10-23T16:07:55;19.90;99.90
6988;DHT22;3534;49.960;8.018;2022-10-23T16:10:22;19.90;99.90
6988;DHT22;3534;49.960;8.018;2022-10-23T16:12:49;19.90;99.90
6988;DHT22;3534;49.960;8.018;2022-10-23T16:15:17;19.80;99.90
6988;DHT22;3534;49.960;8.018;2022-10-23T16:17:44;19.80;99.90
6988;DHT22;3534;49.960;8.018;2022-10-23T16:20:11;19.70;99.90